Página principal
METAR-TAF:

METAR-TAF

Aeroportos :

Red Dog Mine, Alasca, Estados Unidos

latitude: 68-01-56N, longitude: 162-53-57W, altura: 295 m

Observação actual do tempo

O boletim foi feito há 13 horas e 10 minutos, às 00:11 UTC
Vento 6 kt de sudoeste
Temperatura 21°C
Humidade 38%
Pressão 1015 hPa
Visibilidade: 16.1 km
Céu limpo

METAR: PADG 220011Z 22006KT 10SM SKC 21/06 A2996

Hora: 05:21 (13:21 UTC)


TAF: em falta

Observações e previsões do tempo de mais de 4000 aeroportos (mensagens METAR e TAF).

As estações disponíveis são os pontos amarelos e vermelhos sobre o mapa.

Mova o rato sobre o mapa para ver o nome da estação.

Depois clique no ponto para visualizar as observações e previsões meteorológicas.

Para alterar o mapa : clique nos botões verdes com uma cruz preta para aumentar o zoom; no botão verde com uma pitada de zoom; ou nas setas verdes para mapas adjacentes.


METAR-TAF: